sensor_id;sensor_type;location;lat;lon;timestamp;temperature;humidity
22071;DHT22;11200;51.488;6.668;2022-08-19T00:02:24;19.70;99.90
22071;DHT22;11200;51.488;6.668;2022-08-19T00:04:49;19.70;99.90
22071;DHT22;11200;51.488;6.668;2022-08-19T00:07:18;19.70;99.90
22071;DHT22;11200;51.488;6.668;2022-08-19T00:09:45;19.60;99.90
22071;DHT22;11200;51.488;6.668;2022-08-19T00:12:10;19.60;99.90
22071;DHT22;11200;51.488;6.668;2022-08-19T00:14:37;19.60;99.90
22071;DHT22;11200;51.488;6.668;2022-08-19T00:17:04;19.50;99.90
22071;DHT22;11200;51.488;6.668;2022-08-19T00:19:30;19.50;99.90
22071;DHT22;11200;51.488;6.668;2022-08-19T00:21:56;19.50;99.90
22071;DHT22;11200;51.488;6.668;2022-08-19T00:24:22;19.50;99.90
22071;DHT22;11200;51.488;6.668;2022-08-19T00:26:48;19.50;99.90
22071;DHT22;11200;51.488;6.668;2022-08-19T00:29:18;19.40;99.90
22071;DHT22;11200;51.488;6.668;2022-08-19T00:31:44;19.40;99.90
22071;DHT22;11200;51.488;6.668;2022-08-19T00:34:11;19.40;99.90
22071;DHT22;11200;51.488;6.668;2022-08-19T00:36:37;19.40;99.90
22071;DHT22;11200;51.488;6.668;2022-08-19T00:39:04;19.30;99.90
22071;DHT22;11200;51.488;6.668;2022-08-19T00:41:30;19.30;99.90
22071;DHT22;11200;51.488;6.668;2022-08-19T00:44:14;19.30;99.90
22071;DHT22;11200;51.488;6.668;2022-08-19T00:46:43;19.30;99.90
22071;DHT22;11200;51.488;6.668;2022-08-19T00:49:16;19.20;99.90
22071;DHT22;11200;51.488;6.668;2022-08-19T00:51:47;19.20;99.90
22071;DHT22;11200;51.488;6.668;2022-08-19T00:54:14;19.20;99.90
22071;DHT22;11200;51.488;6.668;2022-08-19T00:56:41;19.20;99.90
22071;DHT22;11200;51.488;6.668;2022-08-19T00:59:07;19.10;99.90
22071;DHT22;11200;51.488;6.668;2022-08-19T01:01:39;19.10;99.90
22071;DHT22;11200;51.488;6.668;2022-08-19T01:04:05;19.10;99.90
22071;DHT22;11200;51.488;6.668;2022-08-19T01:06:32;19.00;99.90
22071;DHT22;11200;51.488;6.668;2022-08-19T01:08:59;19.00;99.90
22071;DHT22;11200;51.488;6.668;2022-08-19T01:11:29;19.00;99.90
22071;DHT22;11200;51.488;6.668;2022-08-19T01:13:55;19.00;99.90
22071;DHT22;11200;51.488;6.668;2022-08-19T01:16:24;19.00;99.90
22071;DHT22;11200;51.488;6.668;2022-08-19T01:18:50;18.90;99.90
22071;DHT22;11200;51.488;6.668;2022-08-19T01:21:43;19.00;99.90
22071;DHT22;11200;51.488;6.668;2022-08-19T01:24:11;18.90;99.90
22071;DHT22;11200;51.488;6.668;2022-08-19T01:26:45;18.90;99.90
22071;DHT22;11200;51.488;6.668;2022-08-19T01:29:11;18.80;99.90
22071;DHT22;11200;51.488;6.668;2022-08-19T01:31:37;18.90;99.90
22071;DHT22;11200;51.488;6.668;2022-08-19T01:34:04;18.80;99.90
22071;DHT22;11200;51.488;6.668;2022-08-19T01:36:40;18.80;99.90
22071;DHT22;11200;51.488;6.668;2022-08-19T01:39:11;18.80;99.90
22071;DHT22;11200;51.488;6.668;2022-08-19T01:41:37;18.80;99.90
22071;DHT22;11200;51.488;6.668;2022-08-19T01:44:04;18.70;99.90
22071;DHT22;11200;51.488;6.668;2022-08-19T01:46:31;18.70;99.90
22071;DHT22;11200;51.488;6.668;2022-08-19T01:48:57;18.70;99.90
22071;DHT22;11200;51.488;6.668;2022-08-19T01:51:23;18.70;99.90
22071;DHT22;11200;51.488;6.668;2022-08-19T01:53:50;18.70;99.90
22071;DHT22;11200;51.488;6.668;2022-08-19T01:56:17;18.60;99.90
22071;DHT22;11200;51.488;6.668;2022-08-19T01:58:53;18.60;99.90
22071;DHT22;11200;51.488;6.668;2022-08-19T02:01:20;18.60;99.90
22071;DHT22;11200;51.488;6.668;2022-08-19T02:03:45;18.60;99.90
22071;DHT22;11200;51.488;6.668;2022-08-19T02:06:12;18.50;99.90
22071;DHT22;11200;51.488;6.668;2022-08-19T02:08:39;18.50;99.90
22071;DHT22;11200;51.488;6.668;2022-08-19T02:11:06;18.50;99.90
22071;DHT22;11200;51.488;6.668;2022-08-19T02:13:32;18.50;99.90
22071;DHT22;11200;51.488;6.668;2022-08-19T02:15:59;18.50;99.90
22071;DHT22;11200;51.488;6.668;2022-08-19T02:18:24;18.50;99.90
22071;DHT22;11200;51.488;6.668;2022-08-19T02:20:51;18.40;99.90
22071;DHT22;11200;51.488;6.668;2022-08-19T02:23:17;18.40;99.90
22071;DHT22;11200;51.488;6.668;2022-08-19T02:25:45;18.40;99.90
22071;DHT22;11200;51.488;6.668;2022-08-19T02:28:11;18.40;99.90
22071;DHT22;11200;51.488;6.668;2022-08-19T02:30:38;18.40;99.90
22071;DHT22;11200;51.488;6.668;2022-08-19T02:33:04;18.40;99.90
22071;DHT22;11200;51.488;6.668;2022-08-19T02:35:31;18.50;99.90
22071;DHT22;11200;51.488;6.668;2022-08-19T02:37:57;18.30;99.90
22071;DHT22;11200;51.488;6.668;2022-08-19T02:40:47;18.30;99.90
22071;DHT22;11200;51.488;6.668;2022-08-19T02:43:14;18.30;99.90
22071;DHT22;11200;51.488;6.668;2022-08-19T02:45:40;18.20;99.90
22071;DHT22;11200;51.488;6.668;2022-08-19T02:48:06;18.20;99.90
22071;DHT22;11200;51.488;6.668;2022-08-19T02:50:33;18.20;99.90
22071;DHT22;11200;51.488;6.668;2022-08-19T02:52:58;18.20;99.90
22071;DHT22;11200;51.488;6.668;2022-08-19T02:55:24;18.20;99.90
22071;DHT22;11200;51.488;6.668;2022-08-19T02:57:49;18.10;99.90
22071;DHT22;11200;51.488;6.668;2022-08-19T03:00:15;18.20;99.90
22071;DHT22;11200;51.488;6.668;2022-08-19T03:02:41;18.10;99.90
22071;DHT22;11200;51.488;6.668;2022-08-19T03:05:08;18.10;99.90
22071;DHT22;11200;51.488;6.668;2022-08-19T03:07:35;18.10;99.90
22071;DHT22;11200;51.488;6.668;2022-08-19T03:10:01;18.10;99.90
22071;DHT22;11200;51.488;6.668;2022-08-19T03:12:27;18.10;99.90
22071;DHT22;11200;51.488;6.668;2022-08-19T03:14:52;18.00;99.90
22071;DHT22;11200;51.488;6.668;2022-08-19T03:17:19;18.30;99.90
22071;DHT22;11200;51.488;6.668;2022-08-19T03:19:44;18.00;99.90
22071;DHT22;11200;51.488;6.668;2022-08-19T03:22:10;18.00;99.90
22071;DHT22;11200;51.488;6.668;2022-08-19T03:24:36;18.00;99.90
22071;DHT22;11200;51.488;6.668;2022-08-19T03:27:02;18.00;99.90
22071;DHT22;11200;51.488;6.668;2022-08-19T03:29:31;18.00;99.90
22071;DHT22;11200;51.488;6.668;2022-08-19T03:31:59;18.00;99.90
22071;DHT22;11200;51.488;6.668;2022-08-19T03:34:28;18.00;99.90
22071;DHT22;11200;51.488;6.668;2022-08-19T03:36:57;18.00;99.90
22071;DHT22;11200;51.488;6.668;2022-08-19T03:39:24;18.00;99.90
22071;DHT22;11200;51.488;6.668;2022-08-19T03:41:52;18.00;99.90
22071;DHT22;11200;51.488;6.668;2022-08-19T03:44:21;18.00;99.90
22071;DHT22;11200;51.488;6.668;2022-08-19T03:46:50;18.00;99.90
22071;DHT22;11200;51.488;6.668;2022-08-19T03:49:17;18.00;99.90
22071;DHT22;11200;51.488;6.668;2022-08-19T03:51:43;17.90;99.90
22071;DHT22;11200;51.488;6.668;2022-08-19T03:54:11;17.90;99.90
22071;DHT22;11200;51.488;6.668;2022-08-19T03:56:39;17.90;99.90
22071;DHT22;11200;51.488;6.668;2022-08-19T03:59:08;17.90;99.90
22071;DHT22;11200;51.488;6.668;2022-08-19T04:01:34;17.90;99.90
22071;DHT22;11200;51.488;6.668;2022-08-19T04:04:00;17.90;99.90
22071;DHT22;11200;51.488;6.668;2022-08-19T04:06:29;17.90;99.90
22071;DHT22;11200;51.488;6.668;2022-08-19T04:08:56;17.90;99.90
22071;DHT22;11200;51.488;6.668;2022-08-19T04:11:30;17.90;99.90
22071;DHT22;11200;51.488;6.668;2022-08-19T04:13:56;17.90;99.90
22071;DHT22;11200;51.488;6.668;2022-08-19T04:16:24;17.80;99.90
22071;DHT22;11200;51.488;6.668;2022-08-19T04:18:50;17.90;99.90
22071;DHT22;11200;51.488;6.668;2022-08-19T04:21:18;17.80;99.90
22071;DHT22;11200;51.488;6.668;2022-08-19T04:23:45;17.80;99.90
22071;DHT22;11200;51.488;6.668;2022-08-19T04:26:34;17.80;99.90
22071;DHT22;11200;51.488;6.668;2022-08-19T04:29:07;17.80;99.90
22071;DHT22;11200;51.488;6.668;2022-08-19T04:31:33;17.70;99.90
22071;DHT22;11200;51.488;6.668;2022-08-19T04:34:04;17.70;99.90
22071;DHT22;11200;51.488;6.668;2022-08-19T04:36:34;17.70;99.90
22071;DHT22;11200;51.488;6.668;2022-08-19T04:39:05;17.70;99.90
22071;DHT22;11200;51.488;6.668;2022-08-19T04:41:32;17.70;99.90
22071;DHT22;11200;51.488;6.668;2022-08-19T04:44:17;17.70;99.90
22071;DHT22;11200;51.488;6.668;2022-08-19T04:46:44;17.70;99.90
22071;DHT22;11200;51.488;6.668;2022-08-19T04:49:09;17.60;99.90
22071;DHT22;11200;51.488;6.668;2022-08-19T04:51:36;17.60;99.90
22071;DHT22;11200;51.488;6.668;2022-08-19T04:54:05;17.60;99.90
22071;DHT22;11200;51.488;6.668;2022-08-19T04:56:30;17.60;99.90
22071;DHT22;11200;51.488;6.668;2022-08-19T04:58:56;17.70;99.90
22071;DHT22;11200;51.488;6.668;2022-08-19T05:01:26;17.60;99.90
22071;DHT22;11200;51.488;6.668;2022-08-19T05:03:53;17.60;99.90
22071;DHT22;11200;51.488;6.668;2022-08-19T05:06:21;17.60;99.90
22071;DHT22;11200;51.488;6.668;2022-08-19T05:08:47;17.60;99.90
22071;DHT22;11200;51.488;6.668;2022-08-19T05:11:16;17.60;99.90
22071;DHT22;11200;51.488;6.668;2022-08-19T05:13:43;17.60;99.90
22071;DHT22;11200;51.488;6.668;2022-08-19T05:16:13;17.60;99.90
22071;DHT22;11200;51.488;6.668;2022-08-19T05:18:40;17.50;99.90
22071;DHT22;11200;51.488;6.668;2022-08-19T05:21:25;17.60;99.90
22071;DHT22;11200;51.488;6.668;2022-08-19T05:24:09;18.00;99.90
22071;DHT22;11200;51.488;6.668;2022-08-19T05:26:36;17.60;99.90
22071;DHT22;11200;51.488;6.668;2022-08-19T05:29:02;17.60;99.90
22071;DHT22;11200;51.488;6.668;2022-08-19T05:31:28;17.60;99.90
22071;DHT22;11200;51.488;6.668;2022-08-19T05:33:55;17.60;99.90
22071;DHT22;11200;51.488;6.668;2022-08-19T05:36:26;17.60;99.90
22071;DHT22;11200;51.488;6.668;2022-08-19T05:38:53;17.60;99.90
22071;DHT22;11200;51.488;6.668;2022-08-19T05:41:20;17.60;99.90
22071;DHT22;11200;51.488;6.668;2022-08-19T05:43:45;17.60;99.90
22071;DHT22;11200;51.488;6.668;2022-08-19T05:46:18;17.60;99.90
22071;DHT22;11200;51.488;6.668;2022-08-19T05:48:45;17.60;99.90
22071;DHT22;11200;51.488;6.668;2022-08-19T05:51:11;17.70;99.90
22071;DHT22;11200;51.488;6.668;2022-08-19T05:53:37;17.70;99.90
22071;DHT22;11200;51.488;6.668;2022-08-19T05:56:12;17.70;99.90
22071;DHT22;11200;51.488;6.668;2022-08-19T05:58:39;17.70;99.90
22071;DHT22;11200;51.488;6.668;2022-08-19T06:01:10;17.70;99.90
22071;DHT22;11200;51.488;6.668;2022-08-19T06:03:37;17.80;99.90
22071;DHT22;11200;51.488;6.668;2022-08-19T06:06:03;17.80;99.90
22071;DHT22;11200;51.488;6.668;2022-08-19T06:08:29;17.80;99.90
22071;DHT22;11200;51.488;6.668;2022-08-19T06:10:55;17.90;99.90
22071;DHT22;11200;51.488;6.668;2022-08-19T06:13:22;17.90;99.90
22071;DHT22;11200;51.488;6.668;2022-08-19T06:15:49;17.90;99.90
22071;DHT22;11200;51.488;6.668;2022-08-19T06:18:15;17.90;99.90
22071;DHT22;11200;51.488;6.668;2022-08-19T06:20:42;18.00;99.90
22071;DHT22;11200;51.488;6.668;2022-08-19T06:23:08;18.00;99.90
22071;DHT22;11200;51.488;6.668;2022-08-19T06:25:34;18.00;99.90
22071;DHT22;11200;51.488;6.668;2022-08-19T06:28:00;18.10;99.90
22071;DHT22;11200;51.488;6.668;2022-08-19T06:30:26;18.10;99.90
22071;DHT22;11200;51.488;6.668;2022-08-19T06:32:51;18.10;99.90
22071;DHT22;11200;51.488;6.668;2022-08-19T06:35:17;18.20;99.90
22071;DHT22;11200;51.488;6.668;2022-08-19T06:37:43;18.20;99.90
22071;DHT22;11200;51.488;6.668;2022-08-19T06:40:10;18.30;99.90
22071;DHT22;11200;51.488;6.668;2022-08-19T06:42:36;18.30;99.90
22071;DHT22;11200;51.488;6.668;2022-08-19T06:45:04;18.30;99.90
22071;DHT22;11200;51.488;6.668;2022-08-19T06:47:30;18.40;99.90
22071;DHT22;11200;51.488;6.668;2022-08-19T06:49:58;18.30;99.90
22071;DHT22;11200;51.488;6.668;2022-08-19T06:52:33;18.40;99.90
22071;DHT22;11200;51.488;6.668;2022-08-19T06:55:00;18.50;99.90
22071;DHT22;11200;51.488;6.668;2022-08-19T06:57:26;18.50;99.90
22071;DHT22;11200;51.488;6.668;2022-08-19T06:59:52;18.50;99.90
22071;DHT22;11200;51.488;6.668;2022-08-19T07:02:18;18.60;99.90
22071;DHT22;11200;51.488;6.668;2022-08-19T07:04:45;18.60;99.90
22071;DHT22;11200;51.488;6.668;2022-08-19T07:07:13;18.70;99.90
22071;DHT22;11200;51.488;6.668;2022-08-19T07:09:42;18.70;99.90
22071;DHT22;11200;51.488;6.668;2022-08-19T07:12:11;18.70;99.90
22071;DHT22;11200;51.488;6.668;2022-08-19T07:14:38;18.80;99.90
22071;DHT22;11200;51.488;6.668;2022-08-19T07:17:06;18.90;99.90
22071;DHT22;11200;51.488;6.668;2022-08-19T07:19:32;18.90;99.90
22071;DHT22;11200;51.488;6.668;2022-08-19T07:22:01;19.00;99.90
22071;DHT22;11200;51.488;6.668;2022-08-19T07:24:28;19.00;99.90
22071;DHT22;11200;51.488;6.668;2022-08-19T07:26:56;19.10;99.90
22071;DHT22;11200;51.488;6.668;2022-08-19T07:29:26;19.20;99.90
22071;DHT22;11200;51.488;6.668;2022-08-19T07:31:53;19.20;99.90
22071;DHT22;11200;51.488;6.668;2022-08-19T07:34:22;19.30;99.90
22071;DHT22;11200;51.488;6.668;2022-08-19T07:36:48;19.40;99.90
22071;DHT22;11200;51.488;6.668;2022-08-19T07:39:18;19.50;99.90
22071;DHT22;11200;51.488;6.668;2022-08-19T07:41:45;19.50;99.90
22071;DHT22;11200;51.488;6.668;2022-08-19T07:44:12;19.60;99.90
22071;DHT22;11200;51.488;6.668;2022-08-19T07:46:41;19.80;99.90
22071;DHT22;11200;51.488;6.668;2022-08-19T07:49:10;19.90;99.90
22071;DHT22;11200;51.488;6.668;2022-08-19T07:51:42;20.00;99.90
22071;DHT22;11200;51.488;6.668;2022-08-19T07:54:07;20.10;99.90
22071;DHT22;11200;51.488;6.668;2022-08-19T07:56:33;20.30;99.90
22071;DHT22;11200;51.488;6.668;2022-08-19T07:58:58;20.40;99.90
22071;DHT22;11200;51.488;6.668;2022-08-19T08:01:26;20.50;99.90
22071;DHT22;11200;51.488;6.668;2022-08-19T08:03:54;20.60;99.90
22071;DHT22;11200;51.488;6.668;2022-08-19T08:06:38;20.70;99.90
22071;DHT22;11200;51.488;6.668;2022-08-19T08:09:35;20.90;99.90
22071;DHT22;11200;51.488;6.668;2022-08-19T08:12:05;21.10;99.90
22071;DHT22;11200;51.488;6.668;2022-08-19T08:14:47;21.30;99.90
22071;DHT22;11200;51.488;6.668;2022-08-19T08:17:16;21.60;99.90
22071;DHT22;11200;51.488;6.668;2022-08-19T08:19:43;21.70;99.90
22071;DHT22;11200;51.488;6.668;2022-08-19T08:22:09;22.00;99.90
22071;DHT22;11200;51.488;6.668;2022-08-19T08:24:56;22.20;99.90
22071;DHT22;11200;51.488;6.668;2022-08-19T08:27:24;22.40;99.90
22071;DHT22;11200;51.488;6.668;2022-08-19T08:29:50;22.60;99.90
22071;DHT22;11200;51.488;6.668;2022-08-19T08:32:15;22.70;99.90
22071;DHT22;11200;51.488;6.668;2022-08-19T08:34:42;22.80;99.90
22071;DHT22;11200;51.488;6.668;2022-08-19T08:37:08;22.80;99.90
22071;DHT22;11200;51.488;6.668;2022-08-19T08:39:34;22.90;99.90
22071;DHT22;11200;51.488;6.668;2022-08-19T08:42:34;23.00;99.90
22071;DHT22;11200;51.488;6.668;2022-08-19T08:45:06;23.10;99.90
22071;DHT22;11200;51.488;6.668;2022-08-19T08:47:37;23.20;99.90
22071;DHT22;11200;51.488;6.668;2022-08-19T08:50:28;23.30;99.90
22071;DHT22;11200;51.488;6.668;2022-08-19T08:52:53;23.50;99.90
22071;DHT22;11200;51.488;6.668;2022-08-19T08:55:24;23.60;99.90
22071;DHT22;11200;51.488;6.668;2022-08-19T08:57:52;23.80;99.90
22071;DHT22;11200;51.488;6.668;2022-08-19T09:00:45;23.90;99.90
22071;DHT22;11200;51.488;6.668;2022-08-19T09:03:26;24.10;99.90
22071;DHT22;11200;51.488;6.668;2022-08-19T09:06:07;24.30;99.90
22071;DHT22;11200;51.488;6.668;2022-08-19T09:16:57;25.20;99.90
22071;DHT22;11200;51.488;6.668;2022-08-19T09:19:23;25.50;99.90
22071;DHT22;11200;51.488;6.668;2022-08-19T09:21:49;25.60;99.90
22071;DHT22;11200;51.488;6.668;2022-08-19T09:24:16;25.80;99.90
22071;DHT22;11200;51.488;6.668;2022-08-19T09:26:41;26.00;99.90
22071;DHT22;11200;51.488;6.668;2022-08-19T09:29:09;26.20;99.90
22071;DHT22;11200;51.488;6.668;2022-08-19T09:31:35;26.30;99.90
22071;DHT22;11200;51.488;6.668;2022-08-19T09:34:00;26.40;99.90
22071;DHT22;11200;51.488;6.668;2022-08-19T09:36:28;26.60;99.90
22071;DHT22;11200;51.488;6.668;2022-08-19T09:38:55;26.70;99.90
22071;DHT22;11200;51.488;6.668;2022-08-19T09:41:23;26.80;99.90
22071;DHT22;11200;51.488;6.668;2022-08-19T09:43:51;26.90;99.90
22071;DHT22;11200;51.488;6.668;2022-08-19T09:46:19;27.00;99.90
22071;DHT22;11200;51.488;6.668;2022-08-19T09:48:47;27.10;99.90
22071;DHT22;11200;51.488;6.668;2022-08-19T09:51:22;27.20;99.90
22071;DHT22;11200;51.488;6.668;2022-08-19T09:53:48;27.30;99.90
22071;DHT22;11200;51.488;6.668;2022-08-19T09:56:20;27.40;99.90
22071;DHT22;11200;51.488;6.668;2022-08-19T09:58:47;27.50;99.90
22071;DHT22;11200;51.488;6.668;2022-08-19T10:01:21;27.60;99.90
22071;DHT22;11200;51.488;6.668;2022-08-19T10:03:53;27.70;99.90
22071;DHT22;11200;51.488;6.668;2022-08-19T10:06:21;27.80;99.90
22071;DHT22;11200;51.488;6.668;2022-08-19T10:08:48;27.90;99.90
22071;DHT22;11200;51.488;6.668;2022-08-19T10:11:14;28.00;99.90
22071;DHT22;11200;51.488;6.668;2022-08-19T10:13:42;28.10;99.90
22071;DHT22;11200;51.488;6.668;2022-08-19T10:16:12;28.10;99.90
22071;DHT22;11200;51.488;6.668;2022-08-19T10:18:38;28.20;99.90
22071;DHT22;11200;51.488;6.668;2022-08-19T10:21:07;28.20;99.90
22071;DHT22;11200;51.488;6.668;2022-08-19T10:23:35;28.20;99.90
22071;DHT22;11200;51.488;6.668;2022-08-19T10:26:01;28.20;99.90
22071;DHT22;11200;51.488;6.668;2022-08-19T10:28:28;28.30;99.90
22071;DHT22;11200;51.488;6.668;2022-08-19T10:30:54;28.30;99.90
22071;DHT22;11200;51.488;6.668;2022-08-19T10:33:20;28.40;99.90
22071;DHT22;11200;51.488;6.668;2022-08-19T10:35:45;28.50;99.90
22071;DHT22;11200;51.488;6.668;2022-08-19T10:38:12;28.60;99.90
22071;DHT22;11200;51.488;6.668;2022-08-19T10:40:37;28.70;99.90
22071;DHT22;11200;51.488;6.668;2022-08-19T10:43:03;28.80;99.90
22071;DHT22;11200;51.488;6.668;2022-08-19T10:45:29;28.90;99.90
22071;DHT22;11200;51.488;6.668;2022-08-19T10:47:55;29.00;99.90
22071;DHT22;11200;51.488;6.668;2022-08-19T10:50:20;29.20;99.90
22071;DHT22;11200;51.488;6.668;2022-08-19T10:53:24;29.30;99.90
22071;DHT22;11200;51.488;6.668;2022-08-19T10:55:50;29.40;99.90
22071;DHT22;11200;51.488;6.668;2022-08-19T10:58:35;29.50;99.90
22071;DHT22;11200;51.488;6.668;2022-08-19T11:01:00;29.60;99.90
22071;DHT22;11200;51.488;6.668;2022-08-19T11:03:26;29.70;99.90
22071;DHT22;11200;51.488;6.668;2022-08-19T11:06:05;29.80;99.90
22071;DHT22;11200;51.488;6.668;2022-08-19T11:08:33;30.00;99.90
22071;DHT22;11200;51.488;6.668;2022-08-19T11:11:01;30.10;99.90
22071;DHT22;11200;51.488;6.668;2022-08-19T11:13:29;30.30;99.90
22071;DHT22;11200;51.488;6.668;2022-08-19T11:16:05;30.40;99.90
22071;DHT22;11200;51.488;6.668;2022-08-19T11:18:32;30.60;99.90
22071;DHT22;11200;51.488;6.668;2022-08-19T11:21:18;30.80;99.90
22071;DHT22;11200;51.488;6.668;2022-08-19T11:23:49;30.90;99.90
22071;DHT22;11200;51.488;6.668;2022-08-19T11:26:17;31.10;99.90
22071;DHT22;11200;51.488;6.668;2022-08-19T11:28:43;31.20;99.90
22071;DHT22;11200;51.488;6.668;2022-08-19T11:31:16;31.30;99.90
22071;DHT22;11200;51.488;6.668;2022-08-19T11:33:42;31.40;99.90
22071;DHT22;11200;51.488;6.668;2022-08-19T11:36:08;31.50;99.90
22071;DHT22;11200;51.488;6.668;2022-08-19T11:38:35;31.50;99.90
22071;DHT22;11200;51.488;6.668;2022-08-19T11:41:04;31.60;99.90
22071;DHT22;11200;51.488;6.668;2022-08-19T11:43:30;31.70;99.90
22071;DHT22;11200;51.488;6.668;2022-08-19T11:45:57;31.70;99.90
22071;DHT22;11200;51.488;6.668;2022-08-19T11:48:24;31.80;99.90
22071;DHT22;11200;51.488;6.668;2022-08-19T11:50:51;31.80;99.90
22071;DHT22;11200;51.488;6.668;2022-08-19T11:53:20;31.90;99.90
22071;DHT22;11200;51.488;6.668;2022-08-19T11:55:47;31.90;99.90
22071;DHT22;11200;51.488;6.668;2022-08-19T11:58:14;31.90;99.90
22071;DHT22;11200;51.488;6.668;2022-08-19T12:00:41;31.90;99.90
22071;DHT22;11200;51.488;6.668;2022-08-19T12:03:08;32.00;99.90
22071;DHT22;11200;51.488;6.668;2022-08-19T12:05:35;32.00;99.90
22071;DHT22;11200;51.488;6.668;2022-08-19T12:08:01;32.00;99.90
22071;DHT22;11200;51.488;6.668;2022-08-19T12:10:27;32.00;99.90
22071;DHT22;11200;51.488;6.668;2022-08-19T12:12:53;32.00;99.90
22071;DHT22;11200;51.488;6.668;2022-08-19T12:15:18;32.00;99.90
22071;DHT22;11200;51.488;6.668;2022-08-19T12:17:44;32.00;99.90
22071;DHT22;11200;51.488;6.668;2022-08-19T12:20:11;32.10;99.90
22071;DHT22;11200;51.488;6.668;2022-08-19T12:22:39;32.10;99.90
22071;DHT22;11200;51.488;6.668;2022-08-19T12:25:07;32.10;99.90
22071;DHT22;11200;51.488;6.668;2022-08-19T12:27:34;32.20;99.90
22071;DHT22;11200;51.488;6.668;2022-08-19T12:30:02;32.20;99.90
22071;DHT22;11200;51.488;6.668;2022-08-19T12:32:27;32.20;99.90
22071;DHT22;11200;51.488;6.668;2022-08-19T12:34:53;32.30;99.90
22071;DHT22;11200;51.488;6.668;2022-08-19T12:37:20;32.40;99.90
22071;DHT22;11200;51.488;6.668;2022-08-19T12:39:45;32.40;99.90
22071;DHT22;11200;51.488;6.668;2022-08-19T12:42:12;32.50;99.90
22071;DHT22;11200;51.488;6.668;2022-08-19T12:44:40;32.50;99.90
22071;DHT22;11200;51.488;6.668;2022-08-19T12:47:07;32.50;99.90
22071;DHT22;11200;51.488;6.668;2022-08-19T12:49:34;32.50;99.90
22071;DHT22;11200;51.488;6.668;2022-08-19T12:52:06;32.60;99.90
22071;DHT22;11200;51.488;6.668;2022-08-19T12:54:33;32.60;99.90
22071;DHT22;11200;51.488;6.668;2022-08-19T12:56:59;32.60;99.90
22071;DHT22;11200;51.488;6.668;2022-08-19T12:59:25;32.70;99.90
22071;DHT22;11200;51.488;6.668;2022-08-19T13:01:51;32.70;99.90
22071;DHT22;11200;51.488;6.668;2022-08-19T13:04:20;32.80;99.90
22071;DHT22;11200;51.488;6.668;2022-08-19T13:06:46;32.80;99.90
22071;DHT22;11200;51.488;6.668;2022-08-19T13:09:11;32.80;99.90
22071;DHT22;11200;51.488;6.668;2022-08-19T13:11:37;32.80;99.90
22071;DHT22;11200;51.488;6.668;2022-08-19T13:14:06;32.90;99.90
22071;DHT22;11200;51.488;6.668;2022-08-19T13:16:32;32.90;99.90
22071;DHT22;11200;51.488;6.668;2022-08-19T13:18:58;32.90;99.90
22071;DHT22;11200;51.488;6.668;2022-08-19T13:21:26;32.80;99.90
22071;DHT22;11200;51.488;6.668;2022-08-19T13:23:53;32.80;99.90
22071;DHT22;11200;51.488;6.668;2022-08-19T13:26:19;32.80;99.90
22071;DHT22;11200;51.488;6.668;2022-08-19T13:28:45;32.80;99.90
22071;DHT22;11200;51.488;6.668;2022-08-19T13:31:32;32.80;99.90
22071;DHT22;11200;51.488;6.668;2022-08-19T13:34:19;32.80;99.90
22071;DHT22;11200;51.488;6.668;2022-08-19T13:36:52;32.80;99.90
22071;DHT22;11200;51.488;6.668;2022-08-19T13:39:18;32.80;99.90
22071;DHT22;11200;51.488;6.668;2022-08-19T13:41:46;32.70;99.90
22071;DHT22;11200;51.488;6.668;2022-08-19T13:44:16;32.70;99.90
22071;DHT22;11200;51.488;6.668;2022-08-19T13:46:44;32.70;99.90
22071;DHT22;11200;51.488;6.668;2022-08-19T13:49:11;32.70;99.90
22071;DHT22;11200;51.488;6.668;2022-08-19T13:51:39;32.60;99.90
22071;DHT22;11200;51.488;6.668;2022-08-19T13:54:08;32.60;99.90
22071;DHT22;11200;51.488;6.668;2022-08-19T13:56:35;32.50;99.90
22071;DHT22;11200;51.488;6.668;2022-08-19T13:59:01;32.50;99.90
22071;DHT22;11200;51.488;6.668;2022-08-19T14:01:27;32.50;99.90
22071;DHT22;11200;51.488;6.668;2022-08-19T14:03:53;32.50;99.90
22071;DHT22;11200;51.488;6.668;2022-08-19T14:06:19;32.50;99.90
22071;DHT22;11200;51.488;6.668;2022-08-19T14:08:46;32.40;99.90
22071;DHT22;11200;51.488;6.668;2022-08-19T14:11:12;32.40;99.90
22071;DHT22;11200;51.488;6.668;2022-08-19T14:13:38;32.40;99.90
22071;DHT22;11200;51.488;6.668;2022-08-19T14:16:11;32.40;99.90
22071;DHT22;11200;51.488;6.668;2022-08-19T14:18:37;32.40;99.90
22071;DHT22;11200;51.488;6.668;2022-08-19T14:21:03;32.30;99.90
22071;DHT22;11200;51.488;6.668;2022-08-19T14:23:33;32.30;99.90
22071;DHT22;11200;51.488;6.668;2022-08-19T14:26:12;32.20;99.90
22071;DHT22;11200;51.488;6.668;2022-08-19T14:28:39;32.20;99.90
22071;DHT22;11200;51.488;6.668;2022-08-19T14:31:11;32.10;99.90
22071;DHT22;11200;51.488;6.668;2022-08-19T14:33:38;32.00;99.90
22071;DHT22;11200;51.488;6.668;2022-08-19T14:36:04;32.00;99.90
22071;DHT22;11200;51.488;6.668;2022-08-19T14:38:30;31.90;99.90
22071;DHT22;11200;51.488;6.668;2022-08-19T14:41:24;31.80;99.90
22071;DHT22;11200;51.488;6.668;2022-08-19T14:43:51;31.80;99.90
22071;DHT22;11200;51.488;6.668;2022-08-19T14:46:24;31.70;99.90
22071;DHT22;11200;51.488;6.668;2022-08-19T14:48:52;31.60;99.90
22071;DHT22;11200;51.488;6.668;2022-08-19T14:51:19;31.60;99.90
22071;DHT22;11200;51.488;6.668;2022-08-19T14:53:46;31.50;99.90
22071;DHT22;11200;51.488;6.668;2022-08-19T14:56:18;31.50;99.90
22071;DHT22;11200;51.488;6.668;2022-08-19T14:58:44;31.40;99.90
22071;DHT22;11200;51.488;6.668;2022-08-19T15:01:11;31.40;99.90
22071;DHT22;11200;51.488;6.668;2022-08-19T15:03:40;31.30;99.90
22071;DHT22;11200;51.488;6.668;2022-08-19T15:06:08;31.20;99.90
22071;DHT22;11200;51.488;6.668;2022-08-19T15:08:36;31.10;99.90
22071;DHT22;11200;51.488;6.668;2022-08-19T15:11:11;31.10;99.90
22071;DHT22;11200;51.488;6.668;2022-08-19T15:13:38;31.00;99.90
22071;DHT22;11200;51.488;6.668;2022-08-19T15:16:05;31.00;99.90
22071;DHT22;11200;51.488;6.668;2022-08-19T15:18:30;30.90;99.90
22071;DHT22;11200;51.488;6.668;2022-08-19T15:20:58;30.80;99.90
22071;DHT22;11200;51.488;6.668;2022-08-19T15:23:25;30.80;99.90
22071;DHT22;11200;51.488;6.668;2022-08-19T15:25:51;30.70;99.90
22071;DHT22;11200;51.488;6.668;2022-08-19T15:28:21;30.60;99.90
22071;DHT22;11200;51.488;6.668;2022-08-19T15:30:50;30.60;99.90
22071;DHT22;11200;51.488;6.668;2022-08-19T15:33:16;30.50;99.90
22071;DHT22;11200;51.488;6.668;2022-08-19T15:35:43;30.40;99.90
22071;DHT22;11200;51.488;6.668;2022-08-19T15:38:09;30.30;99.90
22071;DHT22;11200;51.488;6.668;2022-08-19T15:40:38;30.20;99.90
22071;DHT22;11200;51.488;6.668;2022-08-19T15:43:04;30.20;99.90
22071;DHT22;11200;51.488;6.668;2022-08-19T15:45:32;30.10;99.90
22071;DHT22;11200;51.488;6.668;2022-08-19T15:47:59;30.00;99.90